Aviation Digital Data Service (ADDS)

Output produced by METARs form (0320 UTC 04 August 2015)
found at http://aviationweather.gov/adds/metars/
 
KIAG 040311Z 0403/0424 26005KT P6SM SCT040 
     FM040900 28005KT P6SM BKN035 
     FM041400 26010KT P6SM BKN040 
     FM041700 26012KT P6SM VCSH BKN040